sensor_id;sensor_type;location;lat;lon;timestamp;P1;durP1;ratioP1;P2;durP2;ratioP2
27003;SDS011;14546;47.590;19.022;2023-05-10T00:00:00;4.18;;;3.20;;
27003;SDS011;14546;47.590;19.022;2023-05-10T00:02:26;4.13;;;2.90;;
27003;SDS011;14546;47.590;19.022;2023-05-10T00:04:55;3.42;;;2.75;;
27003;SDS011;14546;47.590;19.022;2023-05-10T00:07:20;4.93;;;3.38;;
27003;SDS011;14546;47.590;19.022;2023-05-10T00:09:46;5.55;;;3.00;;
27003;SDS011;14546;47.590;19.022;2023-05-10T00:12:12;6.68;;;3.55;;
27003;SDS011;14546;47.590;19.022;2023-05-10T00:14:39;5.20;;;3.40;;
27003;SDS011;14546;47.590;19.022;2023-05-10T00:17:05;5.60;;;3.28;;
27003;SDS011;14546;47.590;19.022;2023-05-10T00:19:31;5.40;;;3.47;;
27003;SDS011;14546;47.590;19.022;2023-05-10T00:21:57;6.18;;;3.53;;
27003;SDS011;14546;47.590;19.022;2023-05-10T00:24:23;5.38;;;3.75;;
27003;SDS011;14546;47.590;19.022;2023-05-10T00:26:49;7.85;;;3.72;;
27003;SDS011;14546;47.590;19.022;2023-05-10T00:29:15;5.80;;;3.72;;
27003;SDS011;14546;47.590;19.022;2023-05-10T00:31:41;5.95;;;3.60;;
27003;SDS011;14546;47.590;19.022;2023-05-10T00:34:07;4.50;;;3.60;;
27003;SDS011;14546;47.590;19.022;2023-05-10T00:36:33;6.43;;;3.47;;
27003;SDS011;14546;47.590;19.022;2023-05-10T00:39:00;4.60;;;3.80;;
27003;SDS011;14546;47.590;19.022;2023-05-10T00:41:26;6.30;;;3.65;;
27003;SDS011;14546;47.590;19.022;2023-05-10T00:43:52;8.60;;;4.13;;
27003;SDS011;14546;47.590;19.022;2023-05-10T00:46:18;5.35;;;3.92;;
27003;SDS011;14546;47.590;19.022;2023-05-10T00:48:44;7.50;;;3.30;;
27003;SDS011;14546;47.590;19.022;2023-05-10T00:51:10;4.45;;;3.63;;
27003;SDS011;14546;47.590;19.022;2023-05-10T00:53:36;5.13;;;3.78;;
27003;SDS011;14546;47.590;19.022;2023-05-10T00:56:03;8.63;;;3.70;;
27003;SDS011;14546;47.590;19.022;2023-05-10T00:58:29;6.00;;;3.33;;
27003;SDS011;14546;47.590;19.022;2023-05-10T01:00:55;6.65;;;3.53;;
27003;SDS011;14546;47.590;19.022;2023-05-10T01:03:22;4.68;;;3.95;;
27003;SDS011;14546;47.590;19.022;2023-05-10T01:05:49;5.10;;;3.63;;
27003;SDS011;14546;47.590;19.022;2023-05-10T01:08:15;7.25;;;4.00;;
27003;SDS011;14546;47.590;19.022;2023-05-10T01:10:41;7.43;;;3.80;;
27003;SDS011;14546;47.590;19.022;2023-05-10T01:13:07;4.63;;;3.70;;
27003;SDS011;14546;47.590;19.022;2023-05-10T01:15:34;9.00;;;4.35;;
27003;SDS011;14546;47.590;19.022;2023-05-10T01:18:01;7.35;;;4.10;;
27003;SDS011;14546;47.590;19.022;2023-05-10T01:20:31;4.75;;;4.25;;
27003;SDS011;14546;47.590;19.022;2023-05-10T01:23:19;9.02;;;4.43;;
27003;SDS011;14546;47.590;19.022;2023-05-10T01:34:09;7.03;;;4.30;;
27003;SDS011;14546;47.590;19.022;2023-05-10T01:36:51;5.35;;;4.20;;
27003;SDS011;14546;47.590;19.022;2023-05-10T01:42:40;5.38;;;3.90;;
27003;SDS011;14546;47.590;19.022;2023-05-10T01:47:50;7.10;;;4.60;;
27003;SDS011;14546;47.590;19.022;2023-05-10T01:50:28;5.60;;;4.47;;
27003;SDS011;14546;47.590;19.022;2023-05-10T01:52:56;7.95;;;4.63;;
27003;SDS011;14546;47.590;19.022;2023-05-10T01:55:25;10.23;;;4.43;;
27003;SDS011;14546;47.590;19.022;2023-05-10T01:57:59;8.23;;;4.28;;
27003;SDS011;14546;47.590;19.022;2023-05-10T02:00:32;5.53;;;4.05;;
27003;SDS011;14546;47.590;19.022;2023-05-10T02:03:00;9.23;;;4.47;;
27003;SDS011;14546;47.590;19.022;2023-05-10T02:05:30;6.85;;;4.95;;
27003;SDS011;14546;47.590;19.022;2023-05-10T02:07:58;5.20;;;4.45;;
27003;SDS011;14546;47.590;19.022;2023-05-10T02:10:27;11.80;;;4.10;;
27003;SDS011;14546;47.590;19.022;2023-05-10T02:12:54;8.07;;;4.15;;
27003;SDS011;14546;47.590;19.022;2023-05-10T02:15:23;5.05;;;4.25;;
27003;SDS011;14546;47.590;19.022;2023-05-10T02:17:50;6.75;;;4.38;;
27003;SDS011;14546;47.590;19.022;2023-05-10T02:20:19;6.28;;;4.07;;
27003;SDS011;14546;47.590;19.022;2023-05-10T02:22:48;5.07;;;4.10;;
27003;SDS011;14546;47.590;19.022;2023-05-10T02:25:17;7.38;;;3.65;;
27003;SDS011;14546;47.590;19.022;2023-05-10T02:27:45;5.00;;;4.50;;
27003;SDS011;14546;47.590;19.022;2023-05-10T02:30:12;8.27;;;4.35;;
27003;SDS011;14546;47.590;19.022;2023-05-10T02:32:39;7.20;;;4.30;;
27003;SDS011;14546;47.590;19.022;2023-05-10T02:35:07;10.07;;;4.68;;
27003;SDS011;14546;47.590;19.022;2023-05-10T02:37:35;6.30;;;4.95;;
27003;SDS011;14546;47.590;19.022;2023-05-10T02:40:05;7.32;;;4.78;;
27003;SDS011;14546;47.590;19.022;2023-05-10T02:42:33;5.45;;;4.78;;
27003;SDS011;14546;47.590;19.022;2023-05-10T02:45:03;8.30;;;5.00;;
27003;SDS011;14546;47.590;19.022;2023-05-10T02:47:36;5.28;;;4.50;;
27003;SDS011;14546;47.590;19.022;2023-05-10T02:50:02;7.90;;;4.20;;
27003;SDS011;14546;47.590;19.022;2023-05-10T02:52:29;5.03;;;4.03;;
27003;SDS011;14546;47.590;19.022;2023-05-10T02:55:02;8.00;;;4.35;;
27003;SDS011;14546;47.590;19.022;2023-05-10T02:57:33;9.18;;;4.65;;
27003;SDS011;14546;47.590;19.022;2023-05-10T03:00:02;7.47;;;4.15;;
27003;SDS011;14546;47.590;19.022;2023-05-10T03:02:28;8.88;;;5.00;;
27003;SDS011;14546;47.590;19.022;2023-05-10T03:04:55;6.75;;;4.28;;
27003;SDS011;14546;47.590;19.022;2023-05-10T03:07:21;5.82;;;4.15;;
27003;SDS011;14546;47.590;19.022;2023-05-10T03:09:48;4.80;;;3.95;;
27003;SDS011;14546;47.590;19.022;2023-05-10T03:16:08;5.60;;;4.38;;
27003;SDS011;14546;47.590;19.022;2023-05-10T03:18:21;6.53;;;5.00;;
27003;SDS011;14546;47.590;19.022;2023-05-10T03:20:55;5.07;;;4.22;;
27003;SDS011;14546;47.590;19.022;2023-05-10T03:25:50;8.48;;;4.88;;
27003;SDS011;14546;47.590;19.022;2023-05-10T03:28:18;4.70;;;4.10;;
27003;SDS011;14546;47.590;19.022;2023-05-10T03:30:45;7.30;;;4.32;;
27003;SDS011;14546;47.590;19.022;2023-05-10T03:33:12;6.38;;;4.53;;
27003;SDS011;14546;47.590;19.022;2023-05-10T03:35:38;5.47;;;4.35;;
27003;SDS011;14546;47.590;19.022;2023-05-10T03:38:04;7.10;;;4.68;;
27003;SDS011;14546;47.590;19.022;2023-05-10T03:40:30;7.63;;;4.15;;
27003;SDS011;14546;47.590;19.022;2023-05-10T03:43:00;7.70;;;4.20;;
27003;SDS011;14546;47.590;19.022;2023-05-10T03:45:26;6.85;;;4.63;;
27003;SDS011;14546;47.590;19.022;2023-05-10T03:47:56;33.15;;;7.60;;
27003;SDS011;14546;47.590;19.022;2023-05-10T03:50:22;38.78;;;8.30;;
27003;SDS011;14546;47.590;19.022;2023-05-10T03:52:48;26.48;;;6.80;;
27003;SDS011;14546;47.590;19.022;2023-05-10T03:55:14;33.35;;;7.65;;
27003;SDS011;14546;47.590;19.022;2023-05-10T03:57:41;33.40;;;8.23;;
27003;SDS011;14546;47.590;19.022;2023-05-10T04:00:07;11.25;;;5.28;;
27003;SDS011;14546;47.590;19.022;2023-05-10T04:02:35;10.32;;;4.60;;
27003;SDS011;14546;47.590;19.022;2023-05-10T04:05:03;7.32;;;5.07;;
27003;SDS011;14546;47.590;19.022;2023-05-10T04:07:29;7.72;;;4.75;;
27003;SDS011;14546;47.590;19.022;2023-05-10T04:09:55;5.90;;;4.53;;
27003;SDS011;14546;47.590;19.022;2023-05-10T04:12:21;5.32;;;4.40;;
27003;SDS011;14546;47.590;19.022;2023-05-10T04:14:47;6.28;;;4.03;;
27003;SDS011;14546;47.590;19.022;2023-05-10T04:17:13;6.18;;;5.03;;
27003;SDS011;14546;47.590;19.022;2023-05-10T04:19:39;7.28;;;4.40;;
27003;SDS011;14546;47.590;19.022;2023-05-10T04:22:05;11.90;;;6.03;;
27003;SDS011;14546;47.590;19.022;2023-05-10T04:24:31;7.63;;;4.72;;
27003;SDS011;14546;47.590;19.022;2023-05-10T04:26:57;7.20;;;4.43;;
27003;SDS011;14546;47.590;19.022;2023-05-10T04:29:25;6.40;;;4.78;;
27003;SDS011;14546;47.590;19.022;2023-05-10T04:31:52;8.60;;;4.90;;
27003;SDS011;14546;47.590;19.022;2023-05-10T04:34:20;6.45;;;4.88;;
27003;SDS011;14546;47.590;19.022;2023-05-10T04:36:46;7.07;;;4.93;;
27003;SDS011;14546;47.590;19.022;2023-05-10T04:39:15;10.70;;;5.70;;
27003;SDS011;14546;47.590;19.022;2023-05-10T04:41:41;6.70;;;5.60;;
27003;SDS011;14546;47.590;19.022;2023-05-10T04:44:07;10.57;;;5.70;;
27003;SDS011;14546;47.590;19.022;2023-05-10T04:46:33;9.23;;;5.75;;
27003;SDS011;14546;47.590;19.022;2023-05-10T04:48:59;7.18;;;5.68;;
27003;SDS011;14546;47.590;19.022;2023-05-10T04:51:25;8.13;;;5.53;;
27003;SDS011;14546;47.590;19.022;2023-05-10T04:53:51;9.27;;;5.43;;
27003;SDS011;14546;47.590;19.022;2023-05-10T04:56:17;8.20;;;5.45;;
27003;SDS011;14546;47.590;19.022;2023-05-10T04:58:43;9.90;;;5.00;;
27003;SDS011;14546;47.590;19.022;2023-05-10T05:01:09;12.05;;;6.00;;
27003;SDS011;14546;47.590;19.022;2023-05-10T05:03:35;9.95;;;5.72;;
27003;SDS011;14546;47.590;19.022;2023-05-10T05:06:02;8.20;;;5.13;;
27003;SDS011;14546;47.590;19.022;2023-05-10T05:08:28;8.65;;;5.05;;
27003;SDS011;14546;47.590;19.022;2023-05-10T05:10:54;9.05;;;5.72;;
27003;SDS011;14546;47.590;19.022;2023-05-10T05:13:24;5.88;;;5.28;;
27003;SDS011;14546;47.590;19.022;2023-05-10T05:15:50;6.80;;;5.13;;
27003;SDS011;14546;47.590;19.022;2023-05-10T05:18:16;9.35;;;5.60;;
27003;SDS011;14546;47.590;19.022;2023-05-10T05:20:42;12.10;;;5.65;;
27003;SDS011;14546;47.590;19.022;2023-05-10T05:23:08;7.15;;;5.65;;
27003;SDS011;14546;47.590;19.022;2023-05-10T05:25:34;13.10;;;6.03;;
27003;SDS011;14546;47.590;19.022;2023-05-10T05:28:00;11.07;;;5.80;;
27003;SDS011;14546;47.590;19.022;2023-05-10T05:30:26;10.50;;;5.80;;
27003;SDS011;14546;47.590;19.022;2023-05-10T05:32:53;7.80;;;5.32;;
27003;SDS011;14546;47.590;19.022;2023-05-10T05:35:18;8.48;;;5.72;;
27003;SDS011;14546;47.590;19.022;2023-05-10T05:37:45;9.13;;;6.00;;
27003;SDS011;14546;47.590;19.022;2023-05-10T05:40:14;9.52;;;6.18;;
27003;SDS011;14546;47.590;19.022;2023-05-10T05:42:42;7.60;;;5.50;;
27003;SDS011;14546;47.590;19.022;2023-05-10T05:45:28;7.15;;;5.30;;
27003;SDS011;14546;47.590;19.022;2023-05-10T05:47:54;9.88;;;5.85;;
27003;SDS011;14546;47.590;19.022;2023-05-10T05:50:21;8.63;;;5.97;;
27003;SDS011;14546;47.590;19.022;2023-05-10T05:52:46;9.38;;;6.30;;
27003;SDS011;14546;47.590;19.022;2023-05-10T05:55:12;14.32;;;6.68;;
27003;SDS011;14546;47.590;19.022;2023-05-10T05:57:39;9.93;;;6.05;;
27003;SDS011;14546;47.590;19.022;2023-05-10T06:00:05;11.82;;;6.88;;
27003;SDS011;14546;47.590;19.022;2023-05-10T06:02:32;9.93;;;6.53;;
27003;SDS011;14546;47.590;19.022;2023-05-10T06:04:58;9.00;;;7.05;;
27003;SDS011;14546;47.590;19.022;2023-05-10T06:07:24;12.40;;;6.82;;
27003;SDS011;14546;47.590;19.022;2023-05-10T06:09:50;7.32;;;5.15;;
27003;SDS011;14546;47.590;19.022;2023-05-10T06:12:17;9.07;;;5.40;;
27003;SDS011;14546;47.590;19.022;2023-05-10T06:14:43;9.73;;;5.20;;
27003;SDS011;14546;47.590;19.022;2023-05-10T06:17:09;8.25;;;5.50;;
27003;SDS011;14546;47.590;19.022;2023-05-10T06:19:35;7.43;;;5.50;;
27003;SDS011;14546;47.590;19.022;2023-05-10T06:22:02;7.50;;;5.05;;
27003;SDS011;14546;47.590;19.022;2023-05-10T06:24:28;13.45;;;5.65;;
27003;SDS011;14546;47.590;19.022;2023-05-10T06:26:54;10.25;;;5.03;;
27003;SDS011;14546;47.590;19.022;2023-05-10T06:29:20;9.75;;;5.40;;
27003;SDS011;14546;47.590;19.022;2023-05-10T06:31:46;6.82;;;4.97;;
27003;SDS011;14546;47.590;19.022;2023-05-10T06:34:13;11.55;;;5.18;;
27003;SDS011;14546;47.590;19.022;2023-05-10T06:36:39;5.97;;;4.57;;
27003;SDS011;14546;47.590;19.022;2023-05-10T06:39:05;6.95;;;5.25;;
27003;SDS011;14546;47.590;19.022;2023-05-10T06:41:32;7.40;;;5.78;;
27003;SDS011;14546;47.590;19.022;2023-05-10T06:43:58;7.55;;;5.28;;
27003;SDS011;14546;47.590;19.022;2023-05-10T06:46:24;7.45;;;5.57;;
27003;SDS011;14546;47.590;19.022;2023-05-10T06:48:50;7.13;;;5.68;;
27003;SDS011;14546;47.590;19.022;2023-05-10T06:51:16;11.25;;;5.20;;
27003;SDS011;14546;47.590;19.022;2023-05-10T06:53:45;8.40;;;5.00;;
27003;SDS011;14546;47.590;19.022;2023-05-10T06:56:11;8.23;;;5.30;;
27003;SDS011;14546;47.590;19.022;2023-05-10T06:58:37;11.00;;;5.05;;
27003;SDS011;14546;47.590;19.022;2023-05-10T07:01:03;8.32;;;5.10;;
27003;SDS011;14546;47.590;19.022;2023-05-10T07:03:32;6.97;;;4.82;;
27003;SDS011;14546;47.590;19.022;2023-05-10T07:06:02;11.48;;;4.97;;
27003;SDS011;14546;47.590;19.022;2023-05-10T07:08:32;5.28;;;4.57;;
27003;SDS011;14546;47.590;19.022;2023-05-10T07:13:27;9.65;;;5.25;;
27003;SDS011;14546;47.590;19.022;2023-05-10T07:15:52;7.88;;;5.15;;
27003;SDS011;14546;47.590;19.022;2023-05-10T07:18:18;6.80;;;5.28;;
27003;SDS011;14546;47.590;19.022;2023-05-10T07:20:45;10.02;;;5.50;;
27003;SDS011;14546;47.590;19.022;2023-05-10T07:23:12;5.38;;;4.68;;
27003;SDS011;14546;47.590;19.022;2023-05-10T07:25:44;9.95;;;5.35;;
27003;SDS011;14546;47.590;19.022;2023-05-10T07:28:15;10.65;;;4.93;;
27003;SDS011;14546;47.590;19.022;2023-05-10T07:30:42;9.85;;;4.82;;
27003;SDS011;14546;47.590;19.022;2023-05-10T07:33:09;11.30;;;5.00;;
27003;SDS011;14546;47.590;19.022;2023-05-10T07:35:36;7.20;;;4.97;;
27003;SDS011;14546;47.590;19.022;2023-05-10T07:38:02;10.82;;;4.85;;
27003;SDS011;14546;47.590;19.022;2023-05-10T07:40:32;7.22;;;5.13;;
27003;SDS011;14546;47.590;19.022;2023-05-10T07:42:58;11.40;;;4.65;;
27003;SDS011;14546;47.590;19.022;2023-05-10T07:45:25;6.65;;;4.60;;
27003;SDS011;14546;47.590;19.022;2023-05-10T07:47:51;6.20;;;4.30;;
27003;SDS011;14546;47.590;19.022;2023-05-10T07:50:17;6.13;;;5.22;;
27003;SDS011;14546;47.590;19.022;2023-05-10T07:52:43;9.02;;;4.93;;
27003;SDS011;14546;47.590;19.022;2023-05-10T07:55:09;7.65;;;4.40;;
27003;SDS011;14546;47.590;19.022;2023-05-10T07:57:36;5.68;;;4.60;;
27003;SDS011;14546;47.590;19.022;2023-05-10T08:00:03;6.68;;;4.10;;
27003;SDS011;14546;47.590;19.022;2023-05-10T08:02:29;5.20;;;4.18;;
27003;SDS011;14546;47.590;19.022;2023-05-10T08:04:55;8.23;;;4.75;;
27003;SDS011;14546;47.590;19.022;2023-05-10T08:07:22;8.95;;;4.40;;
27003;SDS011;14546;47.590;19.022;2023-05-10T08:09:50;8.77;;;4.43;;
27003;SDS011;14546;47.590;19.022;2023-05-10T08:12:16;7.50;;;3.92;;
27003;SDS011;14546;47.590;19.022;2023-05-10T08:14:42;4.65;;;3.53;;
27003;SDS011;14546;47.590;19.022;2023-05-10T08:17:08;9.13;;;4.20;;
27003;SDS011;14546;47.590;19.022;2023-05-10T08:19:35;6.13;;;3.85;;
27003;SDS011;14546;47.590;19.022;2023-05-10T08:22:01;12.65;;;4.47;;
27003;SDS011;14546;47.590;19.022;2023-05-10T08:24:28;9.63;;;4.60;;
27003;SDS011;14546;47.590;19.022;2023-05-10T08:26:54;8.93;;;4.00;;
27003;SDS011;14546;47.590;19.022;2023-05-10T08:29:20;10.40;;;4.20;;
27003;SDS011;14546;47.590;19.022;2023-05-10T08:31:48;11.75;;;4.22;;
27003;SDS011;14546;47.590;19.022;2023-05-10T08:34:15;11.43;;;5.28;;
27003;SDS011;14546;47.590;19.022;2023-05-10T08:36:41;4.63;;;4.07;;
27003;SDS011;14546;47.590;19.022;2023-05-10T08:39:10;12.13;;;4.00;;
27003;SDS011;14546;47.590;19.022;2023-05-10T08:41:37;6.32;;;4.15;;
27003;SDS011;14546;47.590;19.022;2023-05-10T08:44:06;10.43;;;3.95;;
27003;SDS011;14546;47.590;19.022;2023-05-10T08:46:36;4.75;;;4.05;;
27003;SDS011;14546;47.590;19.022;2023-05-10T08:49:08;5.93;;;3.97;;
27003;SDS011;14546;47.590;19.022;2023-05-10T08:51:36;6.53;;;3.75;;
27003;SDS011;14546;47.590;19.022;2023-05-10T08:54:06;5.13;;;3.72;;
27003;SDS011;14546;47.590;19.022;2023-05-10T08:56:32;6.30;;;4.45;;
27003;SDS011;14546;47.590;19.022;2023-05-10T08:59:02;5.85;;;4.45;;
27003;SDS011;14546;47.590;19.022;2023-05-10T09:01:28;10.15;;;3.72;;
27003;SDS011;14546;47.590;19.022;2023-05-10T09:03:56;6.07;;;3.70;;
27003;SDS011;14546;47.590;19.022;2023-05-10T09:06:24;6.65;;;4.07;;
27003;SDS011;14546;47.590;19.022;2023-05-10T09:08:50;4.70;;;3.40;;
27003;SDS011;14546;47.590;19.022;2023-05-10T09:11:17;9.65;;;4.05;;
27003;SDS011;14546;47.590;19.022;2023-05-10T09:13:45;10.10;;;3.85;;
27003;SDS011;14546;47.590;19.022;2023-05-10T09:16:13;6.70;;;3.50;;
27003;SDS011;14546;47.590;19.022;2023-05-10T09:18:39;7.43;;;4.15;;
27003;SDS011;14546;47.590;19.022;2023-05-10T09:21:05;3.92;;;3.53;;
27003;SDS011;14546;47.590;19.022;2023-05-10T09:23:31;8.20;;;3.92;;
27003;SDS011;14546;47.590;19.022;2023-05-10T09:26:03;5.93;;;3.90;;
27003;SDS011;14546;47.590;19.022;2023-05-10T09:29:12;11.38;;;3.70;;
27003;SDS011;14546;47.590;19.022;2023-05-10T09:31:20;7.07;;;4.35;;
27003;SDS011;14546;47.590;19.022;2023-05-10T09:33:48;5.10;;;3.75;;
27003;SDS011;14546;47.590;19.022;2023-05-10T09:36:14;5.28;;;3.22;;
27003;SDS011;14546;47.590;19.022;2023-05-10T09:38:47;6.13;;;3.60;;
27003;SDS011;14546;47.590;19.022;2023-05-10T09:41:20;6.13;;;3.15;;
27003;SDS011;14546;47.590;19.022;2023-05-10T09:46:13;5.43;;;4.20;;
27003;SDS011;14546;47.590;19.022;2023-05-10T09:48:44;4.75;;;2.80;;
27003;SDS011;14546;47.590;19.022;2023-05-10T09:51:18;3.70;;;3.00;;
27003;SDS011;14546;47.590;19.022;2023-05-10T09:53:45;7.90;;;2.70;;
27003;SDS011;14546;47.590;19.022;2023-05-10T09:56:11;5.35;;;2.80;;
27003;SDS011;14546;47.590;19.022;2023-05-10T09:58:38;5.97;;;3.08;;
27003;SDS011;14546;47.590;19.022;2023-05-10T10:01:05;13.68;;;4.18;;
27003;SDS011;14546;47.590;19.022;2023-05-10T10:03:41;6.68;;;3.38;;
27003;SDS011;14546;47.590;19.022;2023-05-10T10:06:08;14.40;;;4.15;;
27003;SDS011;14546;47.590;19.022;2023-05-10T10:08:34;21.67;;;5.47;;
27003;SDS011;14546;47.590;19.022;2023-05-10T10:11:01;25.58;;;5.13;;
27003;SDS011;14546;47.590;19.022;2023-05-10T10:13:27;4.43;;;2.42;;
27003;SDS011;14546;47.590;19.022;2023-05-10T10:15:53;5.63;;;2.60;;
27003;SDS011;14546;47.590;19.022;2023-05-10T10:18:20;7.47;;;3.25;;
27003;SDS011;14546;47.590;19.022;2023-05-10T10:20:52;4.65;;;2.85;;
27003;SDS011;14546;47.590;19.022;2023-05-10T10:23:18;5.70;;;2.60;;
27003;SDS011;14546;47.590;19.022;2023-05-10T10:25:45;6.05;;;2.58;;
27003;SDS011;14546;47.590;19.022;2023-05-10T10:28:22;3.78;;;2.50;;
27003;SDS011;14546;47.590;19.022;2023-05-10T10:30:50;7.10;;;2.50;;
27003;SDS011;14546;47.590;19.022;2023-05-10T10:35:50;2.42;;;2.22;;
27003;SDS011;14546;47.590;19.022;2023-05-10T10:38:17;4.50;;;2.50;;
27003;SDS011;14546;47.590;19.022;2023-05-10T10:40:44;3.10;;;2.10;;
27003;SDS011;14546;47.590;19.022;2023-05-10T10:43:26;3.65;;;2.40;;
27003;SDS011;14546;47.590;19.022;2023-05-10T10:46:09;2.88;;;2.15;;
27003;SDS011;14546;47.590;19.022;2023-05-10T10:48:37;5.28;;;2.40;;
27003;SDS011;14546;47.590;19.022;2023-05-10T10:51:03;3.10;;;2.08;;
27003;SDS011;14546;47.590;19.022;2023-05-10T10:53:29;4.85;;;2.20;;
27003;SDS011;14546;47.590;19.022;2023-05-10T10:56:04;2.25;;;1.73;;
27003;SDS011;14546;47.590;19.022;2023-05-10T10:58:32;2.90;;;1.95;;
27003;SDS011;14546;47.590;19.022;2023-05-10T11:01:14;3.67;;;2.15;;
27003;SDS011;14546;47.590;19.022;2023-05-10T11:03:41;2.08;;;1.90;;
27003;SDS011;14546;47.590;19.022;2023-05-10T11:06:33;2.83;;;2.10;;
27003;SDS011;14546;47.590;19.022;2023-05-10T11:09:10;2.92;;;1.88;;
27003;SDS011;14546;47.590;19.022;2023-05-10T11:11:48;2.05;;;1.95;;
27003;SDS011;14546;47.590;19.022;2023-05-10T11:14:15;5.60;;;1.98;;
27003;SDS011;14546;47.590;19.022;2023-05-10T11:16:45;3.10;;;2.08;;
27003;SDS011;14546;47.590;19.022;2023-05-10T11:19:12;2.22;;;2.03;;
27003;SDS011;14546;47.590;19.022;2023-05-10T11:24:12;6.38;;;1.92;;
27003;SDS011;14546;47.590;19.022;2023-05-10T11:26:39;2.40;;;2.10;;
27003;SDS011;14546;47.590;19.022;2023-05-10T11:29:05;10.52;;;2.10;;
27003;SDS011;14546;47.590;19.022;2023-05-10T11:31:32;3.08;;;2.00;;
27003;SDS011;14546;47.590;19.022;2023-05-10T11:33:58;2.47;;;1.70;;
27003;SDS011;14546;47.590;19.022;2023-05-10T11:36:27;2.65;;;2.10;;
27003;SDS011;14546;47.590;19.022;2023-05-10T11:38:54;2.88;;;1.65;;
27003;SDS011;14546;47.590;19.022;2023-05-10T11:41:21;5.60;;;1.88;;
27003;SDS011;14546;47.590;19.022;2023-05-10T11:43:51;3.53;;;2.20;;
27003;SDS011;14546;47.590;19.022;2023-05-10T11:46:18;5.57;;;2.00;;
27003;SDS011;14546;47.590;19.022;2023-05-10T11:48:52;2.40;;;2.03;;
27003;SDS011;14546;47.590;19.022;2023-05-10T11:51:22;6.90;;;2.05;;
27003;SDS011;14546;47.590;19.022;2023-05-10T11:53:49;4.63;;;1.80;;
27003;SDS011;14546;47.590;19.022;2023-05-10T11:56:16;2.10;;;1.65;;
27003;SDS011;14546;47.590;19.022;2023-05-10T11:58:42;5.28;;;1.98;;
27003;SDS011;14546;47.590;19.022;2023-05-10T12:01:08;5.07;;;2.00;;
27003;SDS011;14546;47.590;19.022;2023-05-10T12:03:35;5.10;;;2.17;;
27003;SDS011;14546;47.590;19.022;2023-05-10T12:06:06;3.72;;;2.65;;
27003;SDS011;14546;47.590;19.022;2023-05-10T12:08:32;2.35;;;2.08;;
27003;SDS011;14546;47.590;19.022;2023-05-10T12:11:06;5.75;;;1.90;;
27003;SDS011;14546;47.590;19.022;2023-05-10T12:13:32;2.65;;;1.75;;
27003;SDS011;14546;47.590;19.022;2023-05-10T12:16:12;3.67;;;1.90;;
27003;SDS011;14546;47.590;19.022;2023-05-10T12:18:39;4.38;;;1.77;;
27003;SDS011;14546;47.590;19.022;2023-05-10T12:21:07;1.67;;;1.52;;
27003;SDS011;14546;47.590;19.022;2023-05-10T12:23:35;5.40;;;2.08;;
27003;SDS011;14546;47.590;19.022;2023-05-10T12:26:02;5.07;;;1.73;;
27003;SDS011;14546;47.590;19.022;2023-05-10T12:28:32;4.25;;;2.03;;
27003;SDS011;14546;47.590;19.022;2023-05-10T12:30:59;5.05;;;2.05;;
27003;SDS011;14546;47.590;19.022;2023-05-10T12:33:34;6.65;;;1.77;;
27003;SDS011;14546;47.590;19.022;2023-05-10T12:36:01;2.90;;;1.70;;
27003;SDS011;14546;47.590;19.022;2023-05-10T12:40:57;7.57;;;1.85;;
27003;SDS011;14546;47.590;19.022;2023-05-10T12:43:24;4.38;;;1.55;;
27003;SDS011;14546;47.590;19.022;2023-05-10T12:45:50;2.83;;;1.83;;
27003;SDS011;14546;47.590;19.022;2023-05-10T12:48:16;2.03;;;1.70;;
27003;SDS011;14546;47.590;19.022;2023-05-10T12:50:43;2.08;;;1.88;;
27003;SDS011;14546;47.590;19.022;2023-05-10T12:53:09;3.25;;;1.98;;
27003;SDS011;14546;47.590;19.022;2023-05-10T12:55:36;7.25;;;1.90;;
27003;SDS011;14546;47.590;19.022;2023-05-10T12:58:02;5.88;;;1.70;;
27003;SDS011;14546;47.590;19.022;2023-05-10T13:00:28;2.03;;;1.52;;
27003;SDS011;14546;47.590;19.022;2023-05-10T13:02:58;2.38;;;1.70;;
27003;SDS011;14546;47.590;19.022;2023-05-10T13:05:24;1.80;;;1.60;;
27003;SDS011;14546;47.590;19.022;2023-05-10T13:07:50;2.53;;;1.67;;
27003;SDS011;14546;47.590;19.022;2023-05-10T13:10:17;5.45;;;1.85;;
27003;SDS011;14546;47.590;19.022;2023-05-10T13:12:43;3.78;;;1.75;;
27003;SDS011;14546;47.590;19.022;2023-05-10T13:15:09;2.65;;;1.63;;
27003;SDS011;14546;47.590;19.022;2023-05-10T13:17:35;2.17;;;1.80;;
27003;SDS011;14546;47.590;19.022;2023-05-10T13:20:04;4.60;;;2.20;;
27003;SDS011;14546;47.590;19.022;2023-05-10T13:22:30;4.18;;;1.90;;
27003;SDS011;14546;47.590;19.022;2023-05-10T13:24:57;4.30;;;1.80;;
27003;SDS011;14546;47.590;19.022;2023-05-10T13:27:23;3.55;;;1.92;;
27003;SDS011;14546;47.590;19.022;2023-05-10T13:29:49;5.53;;;1.77;;
27003;SDS011;14546;47.590;19.022;2023-05-10T13:32:20;5.90;;;1.73;;
27003;SDS011;14546;47.590;19.022;2023-05-10T13:34:46;5.82;;;1.73;;
27003;SDS011;14546;47.590;19.022;2023-05-10T13:37:12;8.77;;;1.80;;
27003;SDS011;14546;47.590;19.022;2023-05-10T13:39:39;2.92;;;1.52;;
27003;SDS011;14546;47.590;19.022;2023-05-10T13:42:05;1.65;;;1.42;;
27003;SDS011;14546;47.590;19.022;2023-05-10T13:44:32;1.52;;;1.40;;
27003;SDS011;14546;47.590;19.022;2023-05-10T13:46:58;3.58;;;1.42;;
27003;SDS011;14546;47.590;19.022;2023-05-10T13:49:27;4.13;;;1.60;;
27003;SDS011;14546;47.590;19.022;2023-05-10T13:51:53;4.90;;;1.73;;
27003;SDS011;14546;47.590;19.022;2023-05-10T13:54:20;4.60;;;1.60;;
27003;SDS011;14546;47.590;19.022;2023-05-10T13:56:47;8.80;;;1.50;;
27003;SDS011;14546;47.590;19.022;2023-05-10T13:59:14;4.78;;;1.55;;
27003;SDS011;14546;47.590;19.022;2023-05-10T14:01:40;15.02;;;3.60;;
27003;SDS011;14546;47.590;19.022;2023-05-10T14:04:07;11.48;;;2.97;;
27003;SDS011;14546;47.590;19.022;2023-05-10T14:06:39;16.35;;;2.30;;
27003;SDS011;14546;47.590;19.022;2023-05-10T14:09:05;10.38;;;2.20;;
27003;SDS011;14546;47.590;19.022;2023-05-10T14:11:32;17.50;;;3.53;;
27003;SDS011;14546;47.590;19.022;2023-05-10T14:13:59;11.23;;;2.92;;
27003;SDS011;14546;47.590;19.022;2023-05-10T14:16:25;6.05;;;1.75;;
27003;SDS011;14546;47.590;19.022;2023-05-10T14:18:52;3.83;;;1.67;;
27003;SDS011;14546;47.590;19.022;2023-05-10T14:21:21;3.53;;;1.20;;
27003;SDS011;14546;47.590;19.022;2023-05-10T14:23:47;1.60;;;1.40;;
27003;SDS011;14546;47.590;19.022;2023-05-10T14:26:13;2.13;;;1.50;;
27003;SDS011;14546;47.590;19.022;2023-05-10T14:28:43;2.30;;;1.33;;
27003;SDS011;14546;47.590;19.022;2023-05-10T14:31:09;4.03;;;1.60;;
27003;SDS011;14546;47.590;19.022;2023-05-10T14:33:35;3.28;;;1.30;;
27003;SDS011;14546;47.590;19.022;2023-05-10T14:36:01;3.42;;;1.30;;
27003;SDS011;14546;47.590;19.022;2023-05-10T14:38:29;2.28;;;1.38;;
27003;SDS011;14546;47.590;19.022;2023-05-10T14:40:55;5.07;;;1.52;;
27003;SDS011;14546;47.590;19.022;2023-05-10T14:43:22;5.40;;;1.70;;
27003;SDS011;14546;47.590;19.022;2023-05-10T14:45:49;1.88;;;1.60;;
27003;SDS011;14546;47.590;19.022;2023-05-10T14:48:18;5.00;;;1.42;;
27003;SDS011;14546;47.590;19.022;2023-05-10T14:50:46;9.10;;;1.80;;
27003;SDS011;14546;47.590;19.022;2023-05-10T14:53:12;1.88;;;1.50;;
27003;SDS011;14546;47.590;19.022;2023-05-10T14:55:44;1.92;;;1.50;;
27003;SDS011;14546;47.590;19.022;2023-05-10T14:58:14;5.57;;;1.50;;
27003;SDS011;14546;47.590;19.022;2023-05-10T15:00:41;14.27;;;1.42;;
27003;SDS011;14546;47.590;19.022;2023-05-10T15:03:10;3.55;;;1.83;;
27003;SDS011;14546;47.590;19.022;2023-05-10T15:05:42;3.30;;;1.25;;
27003;SDS011;14546;47.590;19.022;2023-05-10T15:08:08;10.35;;;1.40;;